createdAt,value
2016-07-04T00:00:02.483Z,80.49
2016-07-04T00:15:00.390Z,80.16
2016-07-04T00:30:00.397Z,79.57
2016-07-04T00:45:05.109Z,79.99
2016-07-04T01:00:06.257Z,79.83
2016-07-04T01:15:05.001Z,79.48
2016-07-04T01:30:02.403Z,79.74
2016-07-04T01:45:05.042Z,80.19
2016-07-04T02:00:00.402Z,80.17
2016-07-04T02:15:05.079Z,80.48
2016-07-04T02:30:02.402Z,81.03
2016-07-04T02:45:20.117Z,81.39
2016-07-04T03:00:11.457Z,81.08
2016-07-04T03:15:13.426Z,81.96
2016-07-04T03:30:04.992Z,82.85
2016-07-04T03:45:05.008Z,82.75
2016-07-04T04:00:05.035Z,83.55
2016-07-04T04:15:05.056Z,83.05
2016-07-04T04:30:08.665Z,83.36
2016-07-04T04:45:05.052Z,83.08
2016-07-04T05:00:06.598Z,83.28
2016-07-04T05:15:06.646Z,82.42
2016-07-04T05:30:06.775Z,81.68
2016-07-04T05:45:11.269Z,82.16
2016-07-04T06:00:06.686Z,81.77
2016-07-04T06:15:11.654Z,81.25
2016-07-04T06:30:00.465Z,79.41
2016-07-04T06:45:00.482Z,79.45
2016-07-04T07:00:02.489Z,76.55
2016-07-04T07:15:05.104Z,73.03
2016-07-04T07:30:05.115Z,68.73
2016-07-04T07:45:00.485Z,67.05
2016-07-04T08:00:05.111Z,62.55
2016-07-04T08:15:02.626Z,59.68
2016-07-04T08:30:06.753Z,60.01
2016-07-04T08:45:14.639Z,58.79
2016-07-04T09:00:06.807Z,51.9
2016-07-04T09:30:14.883Z,45.53
2016-07-04T09:45:11.851Z,41.79
2016-07-04T10:00:05.104Z,49.16
2016-07-04T10:15:02.512Z,44.75
2016-07-04T10:45:02.667Z,56.13
2016-07-04T11:00:06.752Z,55.35
2016-07-04T11:15:05.110Z,55.74
2016-07-04T11:30:00.535Z,55.8
2016-07-04T11:45:06.906Z,57.93
2016-07-04T12:00:05.143Z,52.13
2016-07-04T12:15:00.567Z,50.21
2016-07-04T12:30:00.583Z,50.7
2016-07-04T12:45:00.589Z,52.39
2016-07-04T13:00:00.644Z,52.91
2016-07-04T13:15:10.922Z,52.04
2016-07-04T13:30:03.547Z,50.9
2016-07-04T13:45:00.593Z,53.92
2016-07-04T14:00:00.633Z,47.15
2016-07-04T14:15:05.680Z,51.56
2016-07-04T14:30:05.207Z,49.95
2016-07-04T14:45:02.738Z,52.33
2016-07-04T15:00:03.545Z,53.72
2016-07-04T15:15:05.281Z,50.56
2016-07-04T15:30:02.719Z,47.27
2016-07-04T15:45:02.640Z,49.06
2016-07-04T16:00:07.004Z,50.43
2016-07-04T16:15:06.996Z,48.29
2016-07-04T16:30:05.226Z,51.75
2016-07-04T16:45:03.590Z,52.93
2016-07-04T17:00:00.644Z,54.07
2016-07-04T17:15:15.036Z,56.83
2016-07-04T17:30:04.892Z,56.2
2016-07-04T17:45:05.607Z,55.78
2016-07-04T18:00:04.884Z,56.4
2016-07-04T18:15:00.666Z,58.14
2016-07-04T18:30:00.696Z,60.27
2016-07-04T18:45:00.659Z,61.35
2016-07-04T19:00:05.289Z,62.63
2016-07-04T19:15:05.265Z,65.49
2016-07-04T19:30:00.727Z,66.93
2016-07-04T19:45:05.290Z,67.61
2016-07-04T20:00:00.696Z,69.42
2016-07-04T20:15:05.284Z,71
2016-07-04T20:30:07.052Z,70.29
2016-07-04T20:45:07.015Z,70.92
2016-07-04T21:00:06.911Z,70.56
2016-07-04T21:15:00.727Z,71.95
2016-07-04T21:30:13.801Z,72.79
2016-07-04T21:45:02.723Z,72.99
2016-07-04T22:00:05.312Z,73.64
2016-07-04T22:15:05.322Z,73.06
2016-07-04T22:30:07.039Z,73.78
2016-07-04T22:45:05.829Z,73.49
2016-07-04T23:00:11.989Z,73.99
